Aérodrome :
LOGIN :

S'inscrire | Disclaimer

   EN    FR    IT 

 










Légende :    VFR   VFR Marginal   IFR   IFR Intensif   IFR Très Intensif
Visi : 
Plafond : 
>= 8 km
>= 3000ft
5 à 8 km
1000 à 3000 ft
1500m à 5 km
500 à 1000 ft
800 à 1500m
200 à 500 ft
< 800m
< 200 ft
Symboles :   Orages  Brouillard  Fortes neiges  Fortes précipitations  Vent > 20 kt
SIGMETs :   Divers  Orages  Givrage  Turbulence  Onde Orograph.  Cendres Volcan.







- Altitude de l'aérodrome : 1521 ft
- Code IATA : NCY
- Voir les cartes d'approche


LFLP - Annecy

METARs EXPIRÉS :
  • 241430Z AUTO 19006KT 120V210 CAVOK 29/16 Q1018 NOSIG
  • 241400Z AUTO 23007KT 180V280 CAVOK 29/17 Q1018 NOSIG
  • 241330Z AUTO 23007KT 180V290 9999 SCT041 29/18 Q1018 NOSIG
  • 241300Z AUTO VRB03KT 9999 BKN038 28/18 Q1019 NOSIG
  • 241230Z AUTO VRB04KT 9999 BKN036 28/18 Q1019 NOSIG
  • 241200Z AUTO 20005KT 160V280 9999 FEW038 27/18 Q1019 NOSIG

Prévision TAF périmée.
Pas de NOTAMs connus pour ce terrain.
5 SIGMETs publiés pour la FIR Marseille (LFMM) :
 
Orages noyés dans la masse
LFMM SIGMET 9 VALID 242200/250200 LFPW
LFMM MARSEILLE FIR/UIR EMBD TS FCST WI N4630 E00600 - N4630 E00700 - N4545 E00700 - N4345 E00345 - N4500 E00300 TOP FL400 MOV NE 25KT NC=
Orages noyés dans la masse
LFMM SIGMET 8 VALID 242200/250200 LFPW
LFMM MARSEILLE FIR/UIR EMBD TS FCST WI N4630 E00600 - N4630 E00700 - N4545 E00700 - N4345 E00345 - N4500 E00300 TOP FL400 STNR NC=
Orages noyés dans la masse
LFMM SIGMET 12 VALID 242345/250315 LFPW
LFMM MARSEILLE FIR/UIR EMBD TS OBS AT 2345Z WI N4630 E00615 - N4630 E00700 - N4445 E00700 - N4330 E00430 - N4500 E00330 TOP FL400 MOV E 25KT NC=
Annulation du SIGMET 9 
LFMM SIGMET 11 VALID 242345/250200 LFPW
LFMM MARSEILLE FIR/UIR CNL SIGMET 9 242200/250200=
Annulation du SIGMET 8 
LFMM SIGMET 10 VALID 242135/250200 LFPW
LFMM MARSEILLE FIR/UIR CNL SIGMET 8 242200/250200=



MET'MAP, la Météo Aéronautique d'un coup d'oeil ! - Copyright ORBIFLY Décembre 2007 - Disclaimer

ORBIFLY MET'MAP TEAM :

Programmation & Développement : Alexandra Zaïnal
Conception & Développement : Baudouin d'Aumeries
Co-Programmation & Développement : Marc-Olivier Méhu
Soutien technique & logistique : Manuel Goepfert

Contact : metmap@orbifly.com




SOURCES & CREDITS :

   NOAA